Time;durP1;ratioP1;P1;durP2;ratioP2;P2;SDS_P1;SDS_P2;PMS_P1;PMS_P2;Temp;Humidity;BMP_temperature;BMP_pressure;BME280_temperature;BME280_humidity;BME280_pressure;Samples;Min_cycle;Max_cycle;Signal;HPM_P1;HPM_P2
2021/11/21 00:00:43;;;;;;;6.60;5.47;;;10.60;99.90;;;;;;6180247;23;20153;-67
2021/11/21 00:03:09;;;;;;;7.70;5.70;;;10.60;99.90;;;;;;6179762;23;20200;-67
2021/11/21 00:05:35;;;;;;;5.63;5.03;;;10.60;99.90;;;;;;6180407;23;20176;-68
2021/11/21 00:08:00;;;;;;;6.63;5.53;;;10.50;99.90;;;;;;6176583;23;20866;-67
2021/11/21 00:10:29;;;;;;;4.97;4.47;;;10.50;99.90;;;;;;6178231;23;20560;-67
2021/11/21 00:12:55;;;;;;;6.47;5.10;;;10.50;99.90;;;;;;6179360;23;20232;-67
2021/11/21 00:15:21;;;;;;;7.63;5.20;;;10.50;99.90;;;;;;6180314;23;20587;-67
2021/11/21 00:17:46;;;;;;;5.60;4.93;;;10.50;99.90;;;;;;6178573;23;20161;-67
2021/11/21 00:20:16;;;;;;;5.23;4.73;;;10.50;99.90;;;;;;6178484;23;20247;-67
2021/11/21 00:22:43;;;;;;;6.20;5.60;;;10.50;99.90;;;;;;6179637;23;20594;-67
2021/11/21 00:25:09;;;;;;;6.33;5.33;;;10.50;99.90;;;;;;6179692;23;20520;-67
2021/11/21 00:27:34;;;;;;;4.73;4.20;;;10.50;99.90;;;;;;6203618;23;20690;-67
2021/11/21 00:30:00;;;;;;;7.97;5.80;;;10.50;99.90;;;;;;6179610;23;20150;-67
2021/11/21 00:32:26;;;;;;;5.87;4.43;;;10.50;99.90;;;;;;6202172;23;20240;-67
2021/11/21 00:34:51;;;;;;;6.10;5.07;;;10.60;99.90;;;;;;6180228;23;20177;-67
2021/11/21 00:37:17;;;;;;;6.63;4.97;;;10.60;99.90;;;;;;6181172;23;20161;-67
2021/11/21 00:39:43;;;;;;;8.30;5.20;;;10.60;99.90;;;;;;6180524;23;20176;-67
2021/11/21 00:42:09;;;;;;;5.37;4.87;;;10.50;99.90;;;;;;6180823;23;20627;-67
2021/11/21 00:44:35;;;;;;;5.83;5.07;;;10.50;99.90;;;;;;6180682;23;20250;-67
2021/11/21 00:47:01;;;;;;;7.73;4.83;;;10.50;99.90;;;;;;6178857;23;20164;-67
2021/11/21 00:49:27;;;;;;;8.70;5.60;;;10.50;99.90;;;;;;6180846;23;20670;-67
2021/11/21 00:51:53;;;;;;;5.67;4.70;;;10.50;99.90;;;;;;6179462;23;20275;-67
2021/11/21 00:54:39;;;;;;;7.87;5.47;;;10.50;99.90;;;;;;6180993;23;20647;-67
2021/11/21 00:57:06;;;;;;;6.87;5.50;;;10.50;99.90;;;;;;6180061;23;20568;-67
2021/11/21 00:59:32;;;;;;;7.93;5.73;;;10.40;99.90;;;;;;6181526;23;20547;-67
2021/11/21 01:01:58;;;;;;;8.40;5.30;;;10.40;99.90;;;;;;6181281;23;20612;-67
2021/11/21 01:04:24;;;;;;;7.00;5.20;;;10.40;99.90;;;;;;6178428;23;20528;-67
2021/11/21 01:06:50;;;;;;;8.00;5.40;;;10.40;99.90;;;;;;6180401;23;20545;-67
2021/11/21 01:09:18;;;;;;;5.50;5.00;;;10.50;99.90;;;;;;6181211;23;20165;-67
2021/11/21 01:11:44;;;;;;;5.70;4.93;;;10.50;99.90;;;;;;6178665;23;20562;-67
2021/11/21 01:14:10;;;;;;;5.57;4.90;;;10.40;99.90;;;;;;6181499;23;20599;-67
2021/11/21 01:16:36;;;;;;;8.63;5.00;;;10.50;99.90;;;;;;6178781;23;20572;-67
2021/11/21 01:19:02;;;;;;;5.20;4.70;;;10.50;99.90;;;;;;6181675;23;20551;-67
2021/11/21 01:21:29;;;;;;;5.97;4.50;;;10.50;99.90;;;;;;6180251;23;20597;-67
2021/11/21 01:23:55;;;;;;;7.23;5.47;;;10.50;99.90;;;;;;6179843;23;20548;-67
2021/11/21 01:26:21;;;;;;;7.27;4.80;;;10.40;99.90;;;;;;6179879;23;21188;-67
2021/11/21 01:28:47;;;;;;;8.63;5.07;;;10.50;99.90;;;;;;6181717;23;20572;-67
2021/11/21 01:31:13;;;;;;;7.57;4.77;;;10.50;99.90;;;;;;6179984;23;20188;-67
2021/11/21 01:33:39;;;;;;;5.70;4.73;;;10.50;99.90;;;;;;6180779;23;20153;-67
2021/11/21 01:36:06;;;;;;;6.43;4.97;;;10.50;99.90;;;;;;6181500;23;20524;-67
2021/11/21 01:38:32;;;;;;;5.53;5.03;;;10.50;99.90;;;;;;6180823;23;20538;-67
2021/11/21 01:40:58;;;;;;;5.80;4.70;;;10.50;99.90;;;;;;6181409;23;20594;-67
2021/11/21 01:43:24;;;;;;;5.63;4.80;;;10.50;99.90;;;;;;6202884;23;20200;-67
2021/11/21 01:45:50;;;;;;;5.80;4.70;;;10.50;99.90;;;;;;6181404;23;20951;-67
2021/11/21 01:48:16;;;;;;;4.77;4.30;;;10.50;99.90;;;;;;6180339;23;20536;-68
2021/11/21 01:50:44;;;;;;;5.07;4.60;;;10.50;99.90;;;;;;6180513;23;20572;-67
2021/11/21 01:53:11;;;;;;;8.37;5.60;;;10.50;99.90;;;;;;6180136;23;20596;-67
2021/11/21 01:55:38;;;;;;;5.00;4.50;;;10.40;99.90;;;;;;6181057;23;20525;-67
2021/11/21 01:58:04;;;;;;;6.20;4.93;;;10.40;99.90;;;;;;6181308;23;20529;-67
2021/11/21 02:00:36;;;;;;;4.97;4.40;;;10.40;99.90;;;;;;6180300;23;20916;-67
2021/11/21 02:03:02;;;;;;;6.77;4.30;;;10.40;99.90;;;;;;6177254;23;20283;-67
2021/11/21 02:05:28;;;;;;;5.60;5.10;;;10.40;99.90;;;;;;6180867;23;20934;-67
2021/11/21 02:07:54;;;;;;;7.17;5.27;;;10.40;99.90;;;;;;6177653;23;20606;-67
2021/11/21 02:10:21;;;;;;;6.60;5.10;;;10.40;99.90;;;;;;6180549;23;20153;-67
2021/11/21 02:12:48;;;;;;;6.10;5.27;;;10.40;99.90;;;;;;6178092;23;20267;-67
2021/11/21 02:15:18;;;;;;;5.70;4.73;;;10.50;99.90;;;;;;6180517;23;20540;-67
2021/11/21 02:17:44;;;;;;;6.53;5.30;;;10.50;99.90;;;;;;6177524;23;20560;-67
2021/11/21 02:20:15;;;;;;;7.10;5.03;;;10.50;99.90;;;;;;6180824;23;20571;-67
2021/11/21 02:22:41;;;;;;;5.93;5.33;;;10.60;99.90;;;;;;6179277;23;21046;-67
2021/11/21 02:25:08;;;;;;;8.93;5.67;;;10.60;99.90;;;;;;6179390;23;20532;-67
2021/11/21 02:27:35;;;;;;;7.20;5.60;;;10.50;99.90;;;;;;6180527;23;20528;-67
2021/11/21 02:30:03;;;;;;;6.10;5.50;;;10.50;99.90;;;;;;6180149;23;21029;-67
2021/11/21 02:32:28;;;;;;;7.03;5.97;;;10.50;99.90;;;;;;6178148;23;20600;-67
2021/11/21 02:34:54;;;;;;;7.23;5.70;;;10.60;99.90;;;;;;6177654;23;20610;-67
2021/11/21 02:37:20;;;;;;;6.83;6.23;;;10.50;99.90;;;;;;6180606;23;20221;-67
2021/11/21 02:39:46;;;;;;;7.27;5.80;;;10.60;99.90;;;;;;6179354;23;20466;-67
2021/11/21 02:42:28;;;;;;;6.47;5.60;;;10.60;99.90;;;;;;6179961;23;20351;-67
2021/11/21 02:44:54;;;;;;;7.50;6.80;;;10.60;99.90;;;;;;6202762;23;20447;-67
2021/11/21 02:47:20;;;;;;;7.00;6.10;;;10.60;99.90;;;;;;6180278;23;20652;-67
2021/11/21 02:49:46;;;;;;;8.23;6.50;;;10.50;99.90;;;;;;6180130;23;20533;-67
2021/11/21 02:52:11;;;;;;;7.20;6.50;;;10.50;99.90;;;;;;6179581;23;20650;-67
2021/11/21 02:54:37;;;;;;;7.03;6.33;;;10.50;99.90;;;;;;6203436;23;20693;-68
2021/11/21 02:57:03;;;;;;;7.00;6.30;;;10.50;99.90;;;;;;6180766;23;20172;-67
2021/11/21 02:59:29;;;;;;;6.90;6.20;;;10.50;99.90;;;;;;6180815;23;20611;-67
2021/11/21 03:01:55;;;;;;;9.07;6.83;;;10.40;99.90;;;;;;6179870;23;20666;-67
2021/11/21 03:04:23;;;;;;;8.90;6.57;;;10.40;99.90;;;;;;6178997;23;20639;-67
2021/11/21 03:06:49;;;;;;;7.33;6.47;;;10.40;99.90;;;;;;6180286;23;20157;-67
2021/11/21 03:09:21;;;;;;;7.20;6.50;;;10.40;99.90;;;;;;6176985;23;20583;-67
2021/11/21 03:11:48;;;;;;;7.97;6.73;;;10.40;99.90;;;;;;6177276;23;20275;-67
2021/11/21 03:14:13;;;;;;;8.73;7.30;;;10.40;99.90;;;;;;6177959;23;20595;-67
2021/11/21 03:16:39;;;;;;;9.07;7.70;;;10.40;99.90;;;;;;6180328;23;20528;-67
2021/11/21 03:19:05;;;;;;;10.00;7.87;;;10.40;99.90;;;;;;6179007;23;20236;-67
2021/11/21 03:21:30;;;;;;;8.03;7.23;;;10.40;99.90;;;;;;6179655;23;20275;-67
2021/11/21 03:23:56;;;;;;;7.80;6.80;;;10.40;99.90;;;;;;6179534;23;20918;-67
2021/11/21 03:26:22;;;;;;;7.90;7.10;;;10.40;99.90;;;;;;6177677;23;20192;-67
2021/11/21 03:28:48;;;;;;;7.20;6.50;;;10.30;99.90;;;;;;6179487;23;20208;-67
2021/11/21 03:31:14;;;;;;;7.00;5.70;;;10.40;99.90;;;;;;6179334;23;20245;-67
2021/11/21 03:33:40;;;;;;;7.83;6.20;;;10.40;99.90;;;;;;6179864;23;20533;-67
2021/11/21 03:36:06;;;;;;;6.80;6.10;;;10.40;99.90;;;;;;6177989;23;20611;-67
2021/11/21 03:38:31;;;;;;;7.50;6.10;;;10.40;99.90;;;;;;6180017;23;20187;-67
2021/11/21 03:40:57;;;;;;;7.73;5.33;;;10.50;99.90;;;;;;6178918;23;20920;-67
2021/11/21 03:43:23;;;;;;;5.50;4.97;;;10.50;99.90;;;;;;6178944;23;20212;-67
2021/11/21 03:45:48;;;;;;;6.07;5.47;;;10.40;99.90;;;;;;6180166;23;20253;-67
2021/11/21 03:48:14;;;;;;;4.97;4.47;;;10.50;99.90;;;;;;6179875;23;20153;-67
2021/11/21 03:50:40;;;;;;;4.80;4.20;;;10.40;99.90;;;;;;6179948;23;20157;-67
2021/11/21 03:53:06;;;;;;;4.60;4.20;;;10.50;99.90;;;;;;6178991;23;20205;-67
2021/11/21 03:55:31;;;;;;;4.73;4.10;;;10.50;99.90;;;;;;6179835;23;20757;-68
2021/11/21 03:57:57;;;;;;;6.73;4.07;;;10.50;99.90;;;;;;6179676;23;20291;-67
2021/11/21 04:00:25;;;;;;;4.23;3.83;;;10.50;99.90;;;;;;6178237;23;20212;-67
2021/11/21 04:02:53;;;;;;;4.50;4.10;;;10.50;99.90;;;;;;6177075;23;20216;-67
2021/11/21 04:05:19;;;;;;;4.40;4.00;;;10.50;99.90;;;;;;6177121;23;20982;-67
2021/11/21 04:07:45;;;;;;;4.73;3.57;;;10.50;99.90;;;;;;6180226;23;20536;-67
2021/11/21 04:10:11;;;;;;;3.97;3.57;;;10.50;99.90;;;;;;6180364;23;20861;-67
2021/11/21 04:12:40;;;;;;;5.90;4.77;;;10.50;99.90;;;;;;6203590;23;21128;-67
2021/11/21 04:15:07;;;;;;;5.30;4.30;;;10.50;99.90;;;;;;6182228;23;20536;-67
2021/11/21 04:17:33;;;;;;;4.70;3.40;;;10.40;99.90;;;;;;6181958;23;20532;-67
2021/11/21 04:19:59;;;;;;;4.23;3.50;;;10.50;99.90;;;;;;6181205;23;20610;-67
2021/11/21 04:22:25;;;;;;;4.13;3.50;;;10.50;99.90;;;;;;6181016;23;20592;-67
2021/11/21 04:24:51;;;;;;;5.47;4.47;;;10.50;99.90;;;;;;6180529;23;20630;-67
2021/11/21 04:27:16;;;;;;;3.77;3.37;;;10.50;99.90;;;;;;6180810;23;20251;-67
2021/11/21 04:29:42;;;;;;;3.67;3.27;;;10.50;99.90;;;;;;6180171;23;20193;-67
2021/11/21 04:32:08;;;;;;;4.53;3.17;;;10.50;99.90;;;;;;6179758;23;20600;-67
2021/11/21 04:34:34;;;;;;;5.30;2.90;;;10.50;99.90;;;;;;6181625;23;20560;-67
2021/11/21 04:37:00;;;;;;;3.90;2.57;;;10.50;99.90;;;;;;6181008;23;21009;-67
2021/11/21 04:39:27;;;;;;;2.70;2.50;;;10.50;99.90;;;;;;6179647;23;20260;-67
2021/11/21 04:41:53;;;;;;;1.97;1.83;;;10.50;99.90;;;;;;6180760;23;20568;-67
2021/11/21 04:44:20;;;;;;;2.93;1.90;;;10.50;99.90;;;;;;6179826;23;20588;-67
2021/11/21 04:46:46;;;;;;;2.27;1.87;;;10.50;99.90;;;;;;6178697;23;20564;-67
2021/11/21 04:49:12;;;;;;;2.90;1.83;;;10.50;99.90;;;;;;6181134;23;20533;-67
2021/11/21 04:51:37;;;;;;;2.07;1.40;;;10.50;99.90;;;;;;6180968;23;20638;-67
2021/11/21 04:54:04;;;;;;;2.07;1.67;;;10.50;99.90;;;;;;6203967;23;20164;-67
2021/11/21 04:56:29;;;;;;;1.90;1.57;;;10.50;99.90;;;;;;6180897;23;20164;-67
2021/11/21 04:58:55;;;;;;;2.47;1.40;;;10.50;99.90;;;;;;6181628;23;20541;-68
2021/11/21 05:01:21;;;;;;;1.87;1.60;;;10.40;99.90;;;;;;6180507;23;20259;-68
2021/11/21 05:03:47;;;;;;;2.03;1.30;;;10.40;99.90;;;;;;6178247;23;20944;-67
2021/11/21 05:06:13;;;;;;;1.93;1.30;;;10.40;99.90;;;;;;6178986;23;20604;-67
2021/11/21 05:08:39;;;;;;;2.67;1.27;;;10.40;99.90;;;;;;6181802;23;20958;-67
2021/11/21 05:11:05;;;;;;;2.67;1.60;;;10.40;99.90;;;;;;6179067;23;20604;-67
2021/11/21 05:13:30;;;;;;;1.57;1.17;;;10.40;99.90;;;;;;6181517;23;20155;-68
2021/11/21 05:15:56;;;;;;;1.90;1.70;;;10.40;99.90;;;;;;6181041;23;20189;-67
2021/11/21 05:18:22;;;;;;;2.00;1.20;;;10.40;99.90;;;;;;6181155;23;20159;-67
2021/11/21 05:20:47;;;;;;;2.03;1.20;;;10.40;99.90;;;;;;6179966;23;20202;-67
2021/11/21 05:23:13;;;;;;;2.60;1.43;;;10.40;99.90;;;;;;6180114;23;20197;-67
2021/11/21 05:25:39;;;;;;;3.87;1.50;;;10.40;99.90;;;;;;6179326;23;20187;-67
2021/11/21 05:28:05;;;;;;;1.77;1.17;;;10.40;99.90;;;;;;6181081;23;21015;-67
2021/11/21 05:30:31;;;;;;;3.03;1.47;;;10.40;99.90;;;;;;6180571;23;20153;-67
2021/11/21 05:32:56;;;;;;;2.77;1.57;;;10.40;99.90;;;;;;6180926;23;20209;-67
2021/11/21 05:35:22;;;;;;;3.03;1.87;;;10.40;99.90;;;;;;6182865;23;20157;-67
2021/11/21 05:37:50;;;;;;;5.40;1.83;;;10.40;99.90;;;;;;6182082;23;20208;-67
2021/11/21 05:40:17;;;;;;;3.03;1.30;;;10.40;99.90;;;;;;6181846;23;20153;-67
2021/11/21 05:42:43;;;;;;;1.77;1.40;;;10.40;99.90;;;;;;6181836;23;20683;-68
2021/11/21 05:45:09;;;;;;;2.27;1.43;;;10.40;99.90;;;;;;6182966;23;20560;-67
2021/11/21 05:47:35;;;;;;;3.53;1.80;;;10.40;99.90;;;;;;6187135;23;20161;-68
2021/11/21 05:50:01;;;;;;;3.80;1.67;;;10.40;99.90;;;;;;6192911;23;20568;-67
2021/11/21 05:52:26;;;;;;;2.40;1.90;;;10.40;99.90;;;;;;6194898;23;20778;-67
2021/11/21 05:54:52;;;;;;;3.57;2.37;;;10.40;99.90;;;;;;6186453;23;20149;-67
2021/11/21 05:57:18;;;;;;;2.93;2.13;;;10.40;99.90;;;;;;6182889;23;20160;-67
2021/11/21 05:59:44;;;;;;;6.40;1.60;;;10.40;99.90;;;;;;6182830;23;20164;-67
2021/11/21 06:02:10;;;;;;;6.13;1.87;;;10.40;99.90;;;;;;6180191;23;20612;-67
2021/11/21 06:04:35;;;;;;;2.70;1.60;;;10.40;99.90;;;;;;6205505;23;20216;-67
2021/11/21 06:07:01;;;;;;;4.60;2.00;;;10.40;99.90;;;;;;6182614;23;20499;-67
2021/11/21 06:09:27;;;;;;;3.97;1.70;;;10.40;99.90;;;;;;6180775;23;20565;-67
2021/11/21 06:11:54;;;;;;;8.83;2.30;;;10.40;99.90;;;;;;6180152;23;20627;-67
2021/11/21 06:14:21;;;;;;;6.27;2.20;;;10.30;99.90;;;;;;6180855;23;20179;-67
2021/11/21 06:16:47;;;;;;;3.07;1.50;;;10.40;99.90;;;;;;6182252;23;20555;-67
2021/11/21 06:19:13;;;;;;;2.60;1.70;;;10.40;99.90;;;;;;6179984;23;20553;-67
2021/11/21 06:21:38;;;;;;;3.37;1.50;;;10.30;99.90;;;;;;6180591;23;21075;-67
2021/11/21 06:24:04;;;;;;;6.00;2.10;;;10.30;99.90;;;;;;6180318;23;20165;-67
2021/11/21 06:26:30;;;;;;;6.90;1.53;;;10.30;99.90;;;;;;6205245;23;20171;-67
2021/11/21 06:28:57;;;;;;;5.83;2.00;;;10.30;99.90;;;;;;6182407;23;20231;-67
2021/11/21 06:31:23;;;;;;;3.70;1.50;;;10.30;99.90;;;;;;6179179;23;20271;-67
2021/11/21 06:33:49;;;;;;;4.90;2.03;;;10.30;99.90;;;;;;6182042;23;20524;-67
2021/11/21 06:36:15;;;;;;;5.90;1.73;;;10.30;99.90;;;;;;6181862;23;20548;-67
2021/11/21 06:38:41;;;;;;;8.53;2.00;;;10.30;99.90;;;;;;6180085;23;20165;-67
2021/11/21 06:41:07;;;;;;;3.80;1.77;;;10.30;99.90;;;;;;6179467;23;20675;-67
2021/11/21 06:43:33;;;;;;;5.17;2.00;;;10.30;99.90;;;;;;6181923;23;21007;-67
2021/11/21 06:45:58;;;;;;;4.00;1.63;;;10.20;99.90;;;;;;6181574;23;20168;-67
2021/11/21 06:48:24;;;;;;;5.47;2.00;;;10.20;99.90;;;;;;6181059;23;20156;-67
2021/11/21 06:50:53;;;;;;;10.53;2.57;;;10.20;99.90;;;;;;6180249;23;20161;-67
2021/11/21 06:53:23;;;;;;;5.40;2.20;;;10.20;99.90;;;;;;6181220;23;20595;-67
2021/11/21 06:55:49;;;;;;;6.80;2.40;;;10.20;99.90;;;;;;6181249;23;20582;-67
2021/11/21 06:58:16;;;;;;;4.37;2.23;;;10.20;99.90;;;;;;6181738;23;20529;-67
2021/11/21 07:00:41;;;;;;;5.33;2.03;;;10.20;99.90;;;;;;6181632;23;20529;-67
2021/11/21 07:03:07;;;;;;;4.67;2.07;;;10.20;99.90;;;;;;6179847;23;20603;-67
2021/11/21 07:05:34;;;;;;;6.83;2.03;;;10.20;99.90;;;;;;6181616;23;20153;-67
2021/11/21 07:08:00;;;;;;;4.83;1.90;;;10.20;99.90;;;;;;6181656;23;20246;-68
2021/11/21 07:10:26;;;;;;;5.20;2.50;;;10.20;99.90;;;;;;6180906;23;20521;-67
2021/11/21 07:12:52;;;;;;;6.10;2.40;;;10.20;99.90;;;;;;6180301;23;20627;-67
2021/11/21 07:15:18;;;;;;;4.43;2.07;;;10.20;99.90;;;;;;6180470;23;20215;-67
2021/11/21 07:17:48;;;;;;;4.33;2.10;;;10.20;99.90;;;;;;6179431;23;20156;-67
2021/11/21 07:20:17;;;;;;;5.90;2.60;;;10.20;99.90;;;;;;6181620;23;20560;-67
2021/11/21 07:22:51;;;;;;;4.87;2.33;;;10.20;99.90;;;;;;6180596;23;20593;-67
2021/11/21 07:25:20;;;;;;;3.30;2.33;;;10.10;99.90;;;;;;6181285;23;20539;-67
2021/11/21 07:27:46;;;;;;;6.40;2.07;;;10.10;99.90;;;;;;6179796;23;20614;-67
2021/11/21 07:30:14;;;;;;;5.10;2.53;;;10.10;99.90;;;;;;6181675;23;20533;-67
2021/11/21 07:32:41;;;;;;;5.67;2.43;;;10.10;99.90;;;;;;6180557;23;20603;-67
2021/11/21 07:35:07;;;;;;;7.80;2.93;;;10.10;99.90;;;;;;6181009;23;20556;-67
2021/11/21 07:37:33;;;;;;;4.70;2.50;;;10.10;99.90;;;;;;6181242;23;20540;-67
2021/11/21 07:39:59;;;;;;;4.40;2.43;;;10.10;99.90;;;;;;6182511;23;20762;-67
2021/11/21 07:42:25;;;;;;;5.70;2.43;;;10.10;99.90;;;;;;6180322;23;20208;-67
2021/11/21 07:44:50;;;;;;;3.23;2.33;;;10.10;99.90;;;;;;6183473;23;20539;-67
2021/11/21 07:47:16;;;;;;;3.53;2.03;;;10.00;99.90;;;;;;6182283;23;20164;-67
2021/11/21 07:49:42;;;;;;;4.10;2.50;;;10.00;99.90;;;;;;6184405;23;20240;-67
2021/11/21 07:52:08;;;;;;;4.90;2.47;;;10.00;99.90;;;;;;6182435;23;20204;-67
2021/11/21 07:54:33;;;;;;;3.67;2.50;;;10.00;99.90;;;;;;6181420;23;20215;-67
2021/11/21 07:57:00;;;;;;;4.03;2.53;;;10.00;99.90;;;;;;6183725;23;20598;-67
2021/11/21 07:59:25;;;;;;;8.17;3.30;;;10.00;99.90;;;;;;6207290;23;20196;-67
2021/11/21 08:01:51;;;;;;;5.53;2.67;;;10.00;99.90;;;;;;6180683;23;20611;-67
2021/11/21 08:04:17;;;;;;;4.10;2.57;;;10.00;99.90;;;;;;6181677;23;20387;-67
2021/11/21 08:06:43;;;;;;;4.57;2.57;;;10.00;99.90;;;;;;6183947;23;20153;-67
2021/11/21 08:09:09;;;;;;;3.87;2.43;;;9.90;99.90;;;;;;6184435;23;20528;-67
2021/11/21 08:11:36;;;;;;;3.73;2.07;;;10.00;99.90;;;;;;6181785;23;20592;-68
2021/11/21 08:14:02;;;;;;;4.67;2.77;;;9.90;99.90;;;;;;6183074;23;20525;-67
2021/11/21 08:16:28;;;;;;;4.07;2.33;;;10.00;99.90;;;;;;6182228;23;21093;-67
2021/11/21 08:18:53;;;;;;;4.80;2.73;;;10.00;99.90;;;;;;6183113;23;20528;-67
2021/11/21 08:21:19;;;;;;;4.70;2.50;;;10.00;99.90;;;;;;6180558;23;20235;-67
2021/11/21 08:23:45;;;;;;;7.80;2.70;;;10.00;99.90;;;;;;6182354;23;20161;-67
2021/11/21 08:26:10;;;;;;;3.47;2.20;;;10.00;99.90;;;;;;6183456;23;20591;-67
2021/11/21 08:28:39;;;;;;;8.73;2.83;;;10.00;99.90;;;;;;6183694;23;20561;-67
2021/11/21 08:31:05;;;;;;;7.07;2.53;;;10.00;99.90;;;;;;6182342;23;20614;-67
2021/11/21 08:33:31;;;;;;;6.90;2.60;;;10.00;99.90;;;;;;6182480;23;20540;-67
2021/11/21 08:35:56;;;;;;;4.77;2.77;;;10.00;99.90;;;;;;6182473;23;20520;-67
2021/11/21 08:38:22;;;;;;;4.73;2.37;;;10.10;99.90;;;;;;6181499;23;20240;-67
2021/11/21 08:40:48;;;;;;;6.37;2.63;;;10.10;99.90;;;;;;6183313;23;20157;-67
2021/11/21 08:43:13;;;;;;;10.03;2.60;;;10.10;99.90;;;;;;6181043;23;20200;-67
2021/11/21 08:45:39;;;;;;;7.30;2.47;;;10.20;99.90;;;;;;6183917;23;20153;-67
2021/11/21 08:48:05;;;;;;;5.47;2.37;;;10.20;99.90;;;;;;6182748;23;20622;-67
2021/11/21 08:50:31;;;;;;;10.50;3.00;;;10.20;99.90;;;;;;6182687;23;20157;-67
2021/11/21 08:52:57;;;;;;;6.00;2.57;;;10.10;99.90;;;;;;6181378;23;20211;-67
2021/11/21 08:55:23;;;;;;;8.77;2.37;;;10.10;99.90;;;;;;6182952;23;20536;-68
2021/11/21 08:57:49;;;;;;;4.13;2.63;;;10.10;99.90;;;;;;6183465;23;20684;-67
2021/11/21 09:00:16;;;;;;;5.63;2.57;;;10.20;99.90;;;;;;6182319;23;20582;-67
2021/11/21 09:02:42;;;;;;;5.80;2.40;;;10.20;99.90;;;;;;6179705;23;20212;-67
2021/11/21 09:05:09;;;;;;;4.70;2.03;;;10.20;99.90;;;;;;6181963;23;20537;-67
2021/11/21 09:07:36;;;;;;;4.37;2.43;;;10.20;99.90;;;;;;6181132;23;21102;-67
2021/11/21 09:10:07;;;;;;;4.33;1.97;;;10.20;99.90;;;;;;6182309;23;20856;-67
2021/11/21 09:12:33;;;;;;;4.13;2.40;;;10.20;99.90;;;;;;6181636;23;20599;-67
2021/11/21 09:14:59;;;;;;;3.70;1.83;;;10.20;99.90;;;;;;6182739;23;20536;-67
2021/11/21 09:17:24;;;;;;;5.90;2.30;;;10.20;99.90;;;;;;6181106;23;20236;-67
2021/11/21 09:19:50;;;;;;;5.10;1.60;;;10.20;99.90;;;;;;6180096;23;20172;-67
2021/11/21 09:22:16;;;;;;;6.63;2.50;;;10.30;99.90;;;;;;6181870;23;20213;-67
2021/11/21 09:24:41;;;;;;;6.13;1.70;;;10.30;99.90;;;;;;6182153;23;20200;-67
2021/11/21 09:27:07;;;;;;;5.30;1.77;;;10.20;99.90;;;;;;6183145;23;20175;-67
2021/11/21 09:29:34;;;;;;;5.63;1.80;;;10.20;99.90;;;;;;6182150;23;20271;-67
2021/11/21 09:31:59;;;;;;;4.37;1.93;;;10.30;99.90;;;;;;6178707;23;20603;-67
2021/11/21 09:34:25;;;;;;;5.10;2.30;;;10.30;99.90;;;;;;6182002;23;20539;-67
2021/11/21 09:36:51;;;;;;;6.40;2.23;;;10.40;99.90;;;;;;6182774;23;20157;-67
2021/11/21 09:39:17;;;;;;;5.93;1.90;;;10.40;99.90;;;;;;6182344;23;20368;-67
2021/11/21 09:41:43;;;;;;;9.13;2.10;;;10.40;99.90;;;;;;6180983;23;20596;-67
2021/11/21 09:44:09;;;;;;;9.10;1.90;;;10.40;99.90;;;;;;6181829;23;20161;-67
2021/11/21 09:46:37;;;;;;;5.63;1.83;;;10.50;99.90;;;;;;6182119;23;20559;-67
2021/11/21 09:49:03;;;;;;;4.10;1.57;;;10.50;99.90;;;;;;6180398;23;20614;-67
2021/11/21 09:51:29;;;;;;;5.03;1.87;;;10.60;99.90;;;;;;6180215;23;20606;-67
2021/11/21 09:53:55;;;;;;;5.93;3.27;;;10.60;99.90;;;;;;6181252;23;20525;-67
2021/11/21 09:56:21;;;;;;;3.53;1.70;;;10.70;99.90;;;;;;6181961;23;20241;-67
2021/11/21 09:58:46;;;;;;;8.60;2.03;;;10.70;99.90;;;;;;6181028;23;20157;-67
2021/11/21 10:01:51;;;;;;;6.33;2.40;;;10.70;99.90;;;;;;6181090;23;20599;-67
2021/11/21 10:04:18;;;;;;;5.93;1.70;;;10.60;99.90;;;;;;6119510;23;20158;-67
2021/11/21 10:06:48;;;;;;;4.77;2.00;;;10.60;99.90;;;;;;6119687;23;21095;-67
2021/11/21 10:09:18;;;;;;;5.00;2.30;;;10.60;99.90;;;;;;6119301;23;20578;-67
2021/11/21 10:12:05;;;;;;;4.80;1.80;;;10.60;99.90;;;;;;6094213;23;20610;-67
2021/11/21 10:14:32;;;;;;;5.50;2.40;;;10.70;99.90;;;;;;6119455;23;21159;-67
2021/11/21 10:16:59;;;;;;;9.50;2.10;;;10.70;99.90;;;;;;6117227;23;20554;-67
2021/11/21 10:19:24;;;;;;;6.53;2.03;;;10.80;99.90;;;;;;6119186;23;20673;-67
2021/11/21 10:21:50;;;;;;;6.33;2.07;;;10.90;99.90;;;;;;6093660;23;20618;-67
2021/11/21 10:24:28;;;;;;;8.27;1.93;;;11.00;99.90;;;;;;6117247;23;20158;-67
2021/11/21 10:27:21;;;;;;;7.43;1.67;;;11.00;99.90;;;;;;6119736;23;20170;-67
2021/11/21 10:29:50;;;;;;;4.27;1.93;;;11.00;99.90;;;;;;6113319;23;20566;-67
2021/11/21 10:32:30;;;;;;;10.77;2.17;;;11.10;99.90;;;;;;6091880;23;20694;-67
2021/11/21 10:34:58;;;;;;;6.30;1.43;;;11.10;99.90;;;;;;6130650;23;20951;-67
2021/11/21 10:37:41;;;;;;;4.77;1.60;;;11.00;99.90;;;;;;6180785;23;20549;-67
2021/11/21 10:40:13;;;;;;;4.17;1.30;;;10.90;99.90;;;;;;6180908;23;20492;-67
2021/11/21 10:42:42;;;;;;;3.03;1.10;;;10.90;99.90;;;;;;6179474;23;20615;-67
2021/11/21 10:45:10;;;;;;;4.00;1.17;;;10.80;99.90;;;;;;6181553;23;20564;-67
2021/11/21 10:47:46;;;;;;;2.57;1.10;;;10.80;99.90;;;;;;6181036;23;20580;-67
2021/11/21 10:50:32;;;;;;;2.77;1.13;;;10.70;99.90;;;;;;6181272;23;20835;-67
2021/11/21 10:53:00;;;;;;;3.17;1.03;;;10.70;99.90;;;;;;6179975;23;20627;-67
2021/11/21 10:55:26;;;;;;;2.60;1.00;;;10.80;99.90;;;;;;6181112;23;20541;-67
2021/11/21 10:57:52;;;;;;;3.57;1.53;;;10.90;99.90;;;;;;6179934;23;20551;-67
2021/11/21 11:00:21;;;;;;;3.47;1.10;;;10.90;99.90;;;;;;6178981;23;20922;-68
2021/11/21 11:02:46;;;;;;;2.30;1.00;;;10.90;99.90;;;;;;6179308;23;21161;-68
2021/11/21 11:05:18;;;;;;;3.37;2.00;;;11.00;99.90;;;;;;6180753;23;21054;-67
2021/11/21 11:07:46;;;;;;;3.27;1.17;;;11.10;99.90;;;;;;6178871;23;21088;-67
2021/11/21 11:10:14;;;;;;;1.73;0.67;;;11.00;99.90;;;;;;6180862;23;20525;-67
2021/11/21 11:12:42;;;;;;;3.73;1.23;;;11.10;99.90;;;;;;6179820;23;20711;-67
2021/11/21 11:15:08;;;;;;;3.60;1.30;;;11.00;99.90;;;;;;6178818;23;20644;-67
2021/11/21 11:17:35;;;;;;;4.00;1.53;;;11.10;99.90;;;;;;6177992;23;20533;-67
2021/11/21 11:20:05;;;;;;;4.87;1.57;;;11.10;99.90;;;;;;6180876;23;20536;-67
2021/11/21 11:22:31;;;;;;;2.97;1.53;;;11.10;99.90;;;;;;6179591;23;20635;-67
2021/11/21 11:25:00;;;;;;;2.97;1.03;;;11.10;99.90;;;;;;6179311;23;20615;-68
2021/11/21 11:27:46;;;;;;;6.57;1.40;;;11.20;99.90;;;;;;6178145;23;20918;-68
2021/11/21 11:30:14;;;;;;;3.83;1.83;;;11.20;99.90;;;;;;6180720;23;20529;-67
2021/11/21 11:32:41;;;;;;;5.37;2.70;;;11.20;99.90;;;;;;6180047;23;20635;-67
2021/11/21 11:35:19;;;;;;;8.87;1.57;;;11.20;99.90;;;;;;6180651;23;20533;-69
2021/11/21 11:37:51;;;;;;;5.37;1.70;;;11.20;99.90;;;;;;6178501;23;20662;-67
2021/11/21 11:40:44;;;;;;;2.43;1.20;;;11.10;99.90;;;;;;6181132;23;21053;-67
2021/11/21 11:43:16;;;;;;;5.47;1.47;;;11.20;99.90;;;;;;6173171;23;20654;-67
2021/11/21 11:45:48;;;;;;;4.30;1.40;;;11.30;99.90;;;;;;6180449;23;20611;-67
2021/11/21 11:48:37;;;;;;;7.50;1.80;;;11.40;99.90;;;;;;6179530;23;20878;-67
2021/11/21 11:51:09;;;;;;;6.73;1.83;;;11.50;99.90;;;;;;6180057;23;20595;-68
2021/11/21 11:53:44;;;;;;;5.53;1.70;;;11.70;99.90;;;;;;6180008;23;20489;-67
2021/11/21 11:56:17;;;;;;;5.37;1.77;;;11.80;99.90;;;;;;6180974;23;20554;-67
2021/11/21 11:58:58;;;;;;;7.27;1.67;;;11.60;99.90;;;;;;6180564;23;20501;-67
2021/11/21 12:01:37;;;;;;;4.97;1.30;;;11.80;99.90;;;;;;6179301;23;21183;-68
2021/11/21 12:04:10;;;;;;;5.10;1.30;;;11.90;99.90;;;;;;6179518;23;20497;-68
2021/11/21 12:06:50;;;;;;;5.20;1.53;;;12.00;99.90;;;;;;6178705;23;20610;-68
2021/11/21 12:09:15;;;;;;;2.80;1.50;;;12.00;99.90;;;;;;6180847;23;20497;-67
2021/11/21 12:12:01;;;;;;;6.17;1.63;;;12.00;99.90;;;;;;6179830;23;20604;-67
2021/11/21 12:14:28;;;;;;;2.93;1.43;;;11.90;99.90;;;;;;6179460;23;20460;-66
2021/11/21 12:16:58;;;;;;;6.80;1.70;;;12.00;99.90;;;;;;6181133;23;20533;-67
2021/11/21 12:19:46;;;;;;;4.20;1.37;;;12.10;99.90;;;;;;6177506;23;21055;-68
2021/11/21 12:22:27;;;;;;;2.40;1.13;;;12.20;99.90;;;;;;6201958;23;20634;-67
2021/11/21 12:25:00;;;;;;;5.20;1.40;;;12.40;99.90;;;;;;6180441;23;20873;-67
2021/11/21 12:27:29;;;;;;;3.23;1.23;;;12.50;99.90;;;;;;6180117;23;20595;-67
2021/11/21 12:30:21;;;;;;;3.20;1.47;;;12.50;99.90;;;;;;6182364;23;20659;-67
2021/11/21 12:32:56;;;;;;;3.60;1.60;;;12.50;99.90;;;;;;6181380;23;20614;-67
2021/11/21 12:35:36;;;;;;;6.53;1.53;;;12.60;99.90;;;;;;6182466;23;20496;-67
2021/11/21 12:38:22;;;;;;;5.03;1.20;;;12.70;99.90;;;;;;6205023;23;20615;-67
2021/11/21 12:41:00;;;;;;;3.77;1.17;;;12.80;99.90;;;;;;6182027;23;20504;-67
2021/11/21 12:43:27;;;;;;;4.87;1.83;;;12.90;99.90;;;;;;6204173;23;20952;-67
2021/11/21 12:46:01;;;;;;;3.70;1.20;;;13.00;99.90;;;;;;6181419;23;20536;-67
2021/11/21 12:48:29;;;;;;;4.10;1.63;;;13.00;99.90;;;;;;6205842;23;21164;-67